sensor_id;sensor_type;location;lat;lon;timestamp;P1;durP1;ratioP1;P2;durP2;ratioP2
9854;SDS011;4966;48.112;9.282;2023-05-07T00:00:16;3.13;;;1.92;;
9854;SDS011;4966;48.112;9.282;2023-05-07T00:02:44;2.97;;;1.95;;
9854;SDS011;4966;48.112;9.282;2023-05-07T00:05:10;7.03;;;2.20;;
9854;SDS011;4966;48.112;9.282;2023-05-07T00:07:35;5.07;;;2.25;;
9854;SDS011;4966;48.112;9.282;2023-05-07T00:10:01;3.55;;;2.13;;
9854;SDS011;4966;48.112;9.282;2023-05-07T00:12:27;6.20;;;2.28;;
9854;SDS011;4966;48.112;9.282;2023-05-07T00:14:55;3.70;;;2.33;;
9854;SDS011;4966;48.112;9.282;2023-05-07T00:17:20;3.05;;;1.98;;
9854;SDS011;4966;48.112;9.282;2023-05-07T00:19:45;3.60;;;1.98;;
9854;SDS011;4966;48.112;9.282;2023-05-07T00:22:11;2.63;;;1.90;;
9854;SDS011;4966;48.112;9.282;2023-05-07T00:24:36;3.70;;;2.00;;
9854;SDS011;4966;48.112;9.282;2023-05-07T00:27:02;4.82;;;2.25;;
9854;SDS011;4966;48.112;9.282;2023-05-07T00:29:27;4.53;;;1.90;;
9854;SDS011;4966;48.112;9.282;2023-05-07T00:31:53;3.95;;;2.03;;
9854;SDS011;4966;48.112;9.282;2023-05-07T00:34:19;5.05;;;2.35;;
9854;SDS011;4966;48.112;9.282;2023-05-07T00:36:45;4.45;;;2.17;;
9854;SDS011;4966;48.112;9.282;2023-05-07T00:39:10;6.85;;;2.08;;
9854;SDS011;4966;48.112;9.282;2023-05-07T00:41:36;8.15;;;2.20;;
9854;SDS011;4966;48.112;9.282;2023-05-07T00:44:01;2.95;;;1.85;;
9854;SDS011;4966;48.112;9.282;2023-05-07T00:46:27;4.30;;;2.28;;
9854;SDS011;4966;48.112;9.282;2023-05-07T00:48:53;7.05;;;2.20;;
9854;SDS011;4966;48.112;9.282;2023-05-07T00:51:19;3.92;;;1.92;;
9854;SDS011;4966;48.112;9.282;2023-05-07T00:53:45;3.65;;;1.90;;
9854;SDS011;4966;48.112;9.282;2023-05-07T00:56:11;2.67;;;1.80;;
9854;SDS011;4966;48.112;9.282;2023-05-07T00:58:37;2.97;;;1.85;;
9854;SDS011;4966;48.112;9.282;2023-05-07T01:01:03;6.13;;;1.85;;
9854;SDS011;4966;48.112;9.282;2023-05-07T01:03:28;4.25;;;2.17;;
9854;SDS011;4966;48.112;9.282;2023-05-07T01:05:54;6.28;;;2.00;;
9854;SDS011;4966;48.112;9.282;2023-05-07T01:08:22;7.47;;;2.30;;
9854;SDS011;4966;48.112;9.282;2023-05-07T01:10:49;3.08;;;2.00;;
9854;SDS011;4966;48.112;9.282;2023-05-07T01:13:16;3.78;;;1.90;;
9854;SDS011;4966;48.112;9.282;2023-05-07T01:15:42;3.65;;;1.90;;
9854;SDS011;4966;48.112;9.282;2023-05-07T01:18:08;2.55;;;1.85;;
9854;SDS011;4966;48.112;9.282;2023-05-07T01:20:33;4.10;;;2.28;;
9854;SDS011;4966;48.112;9.282;2023-05-07T01:22:59;2.70;;;1.92;;
9854;SDS011;4966;48.112;9.282;2023-05-07T01:25:25;6.45;;;2.30;;
9854;SDS011;4966;48.112;9.282;2023-05-07T01:27:51;4.35;;;2.17;;
9854;SDS011;4966;48.112;9.282;2023-05-07T01:30:16;6.57;;;2.05;;
9854;SDS011;4966;48.112;9.282;2023-05-07T01:35:27;3.08;;;1.90;;
9854;SDS011;4966;48.112;9.282;2023-05-07T01:37:59;4.68;;;2.15;;
9854;SDS011;4966;48.112;9.282;2023-05-07T01:40:25;3.53;;;1.60;;
9854;SDS011;4966;48.112;9.282;2023-05-07T01:42:52;2.88;;;1.90;;
9854;SDS011;4966;48.112;9.282;2023-05-07T01:45:19;7.38;;;1.95;;
9854;SDS011;4966;48.112;9.282;2023-05-07T01:47:44;7.15;;;1.70;;
9854;SDS011;4966;48.112;9.282;2023-05-07T01:50:10;6.55;;;2.08;;
9854;SDS011;4966;48.112;9.282;2023-05-07T01:52:39;2.58;;;1.80;;
9854;SDS011;4966;48.112;9.282;2023-05-07T01:55:05;2.75;;;1.83;;
9854;SDS011;4966;48.112;9.282;2023-05-07T01:57:31;4.20;;;1.92;;
9854;SDS011;4966;48.112;9.282;2023-05-07T01:59:56;6.45;;;2.05;;
9854;SDS011;4966;48.112;9.282;2023-05-07T02:02:22;3.88;;;2.10;;
9854;SDS011;4966;48.112;9.282;2023-05-07T02:04:47;4.97;;;2.20;;
9854;SDS011;4966;48.112;9.282;2023-05-07T02:07:12;3.50;;;2.05;;
9854;SDS011;4966;48.112;9.282;2023-05-07T02:09:38;3.42;;;1.83;;
9854;SDS011;4966;48.112;9.282;2023-05-07T02:12:03;2.95;;;1.70;;
9854;SDS011;4966;48.112;9.282;2023-05-07T02:14:29;4.40;;;1.95;;
9854;SDS011;4966;48.112;9.282;2023-05-07T02:16:54;3.38;;;1.70;;
9854;SDS011;4966;48.112;9.282;2023-05-07T02:19:20;3.50;;;1.90;;
9854;SDS011;4966;48.112;9.282;2023-05-07T02:21:46;3.03;;;2.05;;
9854;SDS011;4966;48.112;9.282;2023-05-07T02:24:12;2.72;;;1.80;;
9854;SDS011;4966;48.112;9.282;2023-05-07T02:26:37;3.75;;;2.03;;
9854;SDS011;4966;48.112;9.282;2023-05-07T02:29:03;3.67;;;2.22;;
9854;SDS011;4966;48.112;9.282;2023-05-07T02:31:28;3.47;;;1.90;;
9854;SDS011;4966;48.112;9.282;2023-05-07T02:33:53;6.32;;;2.33;;
9854;SDS011;4966;48.112;9.282;2023-05-07T02:36:19;3.13;;;1.70;;
9854;SDS011;4966;48.112;9.282;2023-05-07T02:38:44;6.07;;;2.00;;
9854;SDS011;4966;48.112;9.282;2023-05-07T02:41:09;4.50;;;2.10;;
9854;SDS011;4966;48.112;9.282;2023-05-07T02:43:35;3.08;;;1.92;;
9854;SDS011;4966;48.112;9.282;2023-05-07T02:46:01;5.88;;;2.03;;
9854;SDS011;4966;48.112;9.282;2023-05-07T02:48:28;5.32;;;1.92;;
9854;SDS011;4966;48.112;9.282;2023-05-07T02:50:53;3.03;;;2.03;;
9854;SDS011;4966;48.112;9.282;2023-05-07T02:53:19;9.50;;;2.05;;
9854;SDS011;4966;48.112;9.282;2023-05-07T02:55:44;4.07;;;1.70;;
9854;SDS011;4966;48.112;9.282;2023-05-07T02:58:10;4.30;;;1.90;;
9854;SDS011;4966;48.112;9.282;2023-05-07T03:00:35;3.53;;;2.05;;
9854;SDS011;4966;48.112;9.282;2023-05-07T03:03:00;6.68;;;2.38;;
9854;SDS011;4966;48.112;9.282;2023-05-07T03:05:26;6.35;;;2.10;;
9854;SDS011;4966;48.112;9.282;2023-05-07T03:07:51;3.35;;;2.25;;
9854;SDS011;4966;48.112;9.282;2023-05-07T03:10:16;4.13;;;2.35;;
9854;SDS011;4966;48.112;9.282;2023-05-07T03:12:43;5.15;;;2.10;;
9854;SDS011;4966;48.112;9.282;2023-05-07T03:15:09;3.25;;;2.17;;
9854;SDS011;4966;48.112;9.282;2023-05-07T03:17:35;3.10;;;2.25;;
9854;SDS011;4966;48.112;9.282;2023-05-07T03:20:00;9.15;;;2.38;;
9854;SDS011;4966;48.112;9.282;2023-05-07T03:22:26;8.43;;;2.25;;
9854;SDS011;4966;48.112;9.282;2023-05-07T03:24:51;4.40;;;2.40;;
9854;SDS011;4966;48.112;9.282;2023-05-07T03:27:17;4.03;;;2.35;;
9854;SDS011;4966;48.112;9.282;2023-05-07T03:29:42;5.82;;;2.28;;
9854;SDS011;4966;48.112;9.282;2023-05-07T03:32:07;6.70;;;1.70;;
9854;SDS011;4966;48.112;9.282;2023-05-07T03:34:32;4.32;;;2.15;;
9854;SDS011;4966;48.112;9.282;2023-05-07T03:36:58;3.80;;;2.20;;
9854;SDS011;4966;48.112;9.282;2023-05-07T03:39:23;3.65;;;1.98;;
9854;SDS011;4966;48.112;9.282;2023-05-07T03:41:49;5.35;;;2.40;;
9854;SDS011;4966;48.112;9.282;2023-05-07T03:44:14;5.10;;;2.05;;
9854;SDS011;4966;48.112;9.282;2023-05-07T03:46:39;6.38;;;2.30;;
9854;SDS011;4966;48.112;9.282;2023-05-07T03:49:05;6.43;;;2.13;;
9854;SDS011;4966;48.112;9.282;2023-05-07T03:51:30;4.13;;;2.42;;
9854;SDS011;4966;48.112;9.282;2023-05-07T03:53:55;5.35;;;1.98;;
9854;SDS011;4966;48.112;9.282;2023-05-07T03:56:22;2.95;;;1.92;;
9854;SDS011;4966;48.112;9.282;2023-05-07T03:58:48;4.10;;;2.08;;
9854;SDS011;4966;48.112;9.282;2023-05-07T04:01:13;3.30;;;2.10;;
9854;SDS011;4966;48.112;9.282;2023-05-07T04:03:39;2.92;;;1.90;;
9854;SDS011;4966;48.112;9.282;2023-05-07T04:06:04;4.75;;;2.00;;
9854;SDS011;4966;48.112;9.282;2023-05-07T04:08:29;5.30;;;2.00;;
9854;SDS011;4966;48.112;9.282;2023-05-07T04:10:58;3.22;;;1.95;;
9854;SDS011;4966;48.112;9.282;2023-05-07T04:13:24;2.72;;;1.83;;
9854;SDS011;4966;48.112;9.282;2023-05-07T04:15:50;6.45;;;2.20;;
9854;SDS011;4966;48.112;9.282;2023-05-07T04:18:16;3.20;;;1.90;;
9854;SDS011;4966;48.112;9.282;2023-05-07T04:20:41;3.22;;;2.08;;
9854;SDS011;4966;48.112;9.282;2023-05-07T04:23:07;6.40;;;2.17;;
9854;SDS011;4966;48.112;9.282;2023-05-07T04:25:33;3.40;;;2.20;;
9854;SDS011;4966;48.112;9.282;2023-05-07T04:27:58;4.15;;;1.75;;
9854;SDS011;4966;48.112;9.282;2023-05-07T04:30:24;3.85;;;2.40;;
9854;SDS011;4966;48.112;9.282;2023-05-07T04:32:49;5.20;;;1.95;;
9854;SDS011;4966;48.112;9.282;2023-05-07T04:35:15;4.82;;;2.20;;
9854;SDS011;4966;48.112;9.282;2023-05-07T04:37:40;7.43;;;2.60;;
9854;SDS011;4966;48.112;9.282;2023-05-07T04:40:06;5.20;;;2.30;;
9854;SDS011;4966;48.112;9.282;2023-05-07T04:42:32;2.67;;;1.92;;
9854;SDS011;4966;48.112;9.282;2023-05-07T04:44:57;4.20;;;2.30;;
9854;SDS011;4966;48.112;9.282;2023-05-07T04:47:23;5.28;;;1.92;;
9854;SDS011;4966;48.112;9.282;2023-05-07T04:49:48;5.38;;;1.75;;
9854;SDS011;4966;48.112;9.282;2023-05-07T04:52:13;10.05;;;1.75;;
9854;SDS011;4966;48.112;9.282;2023-05-07T04:54:40;3.42;;;1.90;;
9854;SDS011;4966;48.112;9.282;2023-05-07T04:57:05;5.65;;;2.60;;
9854;SDS011;4966;48.112;9.282;2023-05-07T04:59:31;4.50;;;2.65;;
9854;SDS011;4966;48.112;9.282;2023-05-07T05:01:57;3.63;;;2.47;;
9854;SDS011;4966;48.112;9.282;2023-05-07T05:04:22;6.28;;;3.42;;
9854;SDS011;4966;48.112;9.282;2023-05-07T05:06:48;2.65;;;1.80;;
9854;SDS011;4966;48.112;9.282;2023-05-07T05:09:13;3.72;;;1.83;;
9854;SDS011;4966;48.112;9.282;2023-05-07T05:11:39;3.70;;;2.10;;
9854;SDS011;4966;48.112;9.282;2023-05-07T05:14:05;6.70;;;2.22;;
9854;SDS011;4966;48.112;9.282;2023-05-07T05:16:30;3.72;;;2.08;;
9854;SDS011;4966;48.112;9.282;2023-05-07T05:18:55;4.80;;;2.00;;
9854;SDS011;4966;48.112;9.282;2023-05-07T05:21:21;6.00;;;2.40;;
9854;SDS011;4966;48.112;9.282;2023-05-07T05:23:46;7.50;;;2.45;;
9854;SDS011;4966;48.112;9.282;2023-05-07T05:26:12;7.45;;;2.20;;
9854;SDS011;4966;48.112;9.282;2023-05-07T05:28:37;4.72;;;1.98;;
9854;SDS011;4966;48.112;9.282;2023-05-07T05:31:04;4.05;;;2.00;;
9854;SDS011;4966;48.112;9.282;2023-05-07T05:33:29;5.60;;;2.13;;
9854;SDS011;4966;48.112;9.282;2023-05-07T05:35:55;4.45;;;2.25;;
9854;SDS011;4966;48.112;9.282;2023-05-07T05:38:20;3.28;;;1.98;;
9854;SDS011;4966;48.112;9.282;2023-05-07T05:40:46;3.70;;;2.17;;
9854;SDS011;4966;48.112;9.282;2023-05-07T05:43:11;3.13;;;1.88;;
9854;SDS011;4966;48.112;9.282;2023-05-07T05:45:37;4.00;;;2.22;;
9854;SDS011;4966;48.112;9.282;2023-05-07T05:48:02;4.85;;;2.67;;
9854;SDS011;4966;48.112;9.282;2023-05-07T05:50:27;4.18;;;2.40;;
9854;SDS011;4966;48.112;9.282;2023-05-07T05:52:53;4.80;;;2.72;;
9854;SDS011;4966;48.112;9.282;2023-05-07T05:55:18;9.57;;;3.45;;
9854;SDS011;4966;48.112;9.282;2023-05-07T05:57:44;14.13;;;6.05;;
9854;SDS011;4966;48.112;9.282;2023-05-07T06:00:10;10.25;;;4.07;;
9854;SDS011;4966;48.112;9.282;2023-05-07T06:02:36;8.75;;;3.45;;
9854;SDS011;4966;48.112;9.282;2023-05-07T06:05:01;4.35;;;2.88;;
9854;SDS011;4966;48.112;9.282;2023-05-07T06:07:27;5.18;;;3.17;;
9854;SDS011;4966;48.112;9.282;2023-05-07T06:09:53;5.15;;;2.95;;
9854;SDS011;4966;48.112;9.282;2023-05-07T06:12:18;6.40;;;3.58;;
9854;SDS011;4966;48.112;9.282;2023-05-07T06:14:43;4.60;;;3.10;;
9854;SDS011;4966;48.112;9.282;2023-05-07T06:17:09;5.38;;;3.17;;
9854;SDS011;4966;48.112;9.282;2023-05-07T06:19:34;4.95;;;3.35;;
9854;SDS011;4966;48.112;9.282;2023-05-07T06:22:00;4.57;;;3.03;;
9854;SDS011;4966;48.112;9.282;2023-05-07T06:24:26;5.55;;;3.50;;
9854;SDS011;4966;48.112;9.282;2023-05-07T06:26:52;6.47;;;3.50;;
9854;SDS011;4966;48.112;9.282;2023-05-07T06:29:17;6.82;;;3.60;;
9854;SDS011;4966;48.112;9.282;2023-05-07T06:31:43;4.90;;;3.60;;
9854;SDS011;4966;48.112;9.282;2023-05-07T06:34:08;6.53;;;3.70;;
9854;SDS011;4966;48.112;9.282;2023-05-07T06:36:34;5.03;;;3.33;;
9854;SDS011;4966;48.112;9.282;2023-05-07T06:39:00;5.32;;;3.28;;
9854;SDS011;4966;48.112;9.282;2023-05-07T06:41:25;6.93;;;3.63;;
9854;SDS011;4966;48.112;9.282;2023-05-07T06:43:51;8.82;;;4.72;;
9854;SDS011;4966;48.112;9.282;2023-05-07T06:46:16;8.13;;;4.38;;
9854;SDS011;4966;48.112;9.282;2023-05-07T06:48:41;7.68;;;3.88;;
9854;SDS011;4966;48.112;9.282;2023-05-07T06:51:07;5.28;;;3.70;;
9854;SDS011;4966;48.112;9.282;2023-05-07T06:53:32;5.30;;;3.25;;
9854;SDS011;4966;48.112;9.282;2023-05-07T06:55:57;4.75;;;3.30;;
9854;SDS011;4966;48.112;9.282;2023-05-07T06:58:23;7.05;;;3.72;;
9854;SDS011;4966;48.112;9.282;2023-05-07T07:00:48;5.00;;;3.00;;
9854;SDS011;4966;48.112;9.282;2023-05-07T07:03:14;6.20;;;3.00;;
9854;SDS011;4966;48.112;9.282;2023-05-07T07:05:42;4.13;;;2.70;;
9854;SDS011;4966;48.112;9.282;2023-05-07T07:08:08;7.13;;;3.13;;
9854;SDS011;4966;48.112;9.282;2023-05-07T07:10:34;10.48;;;3.22;;
9854;SDS011;4966;48.112;9.282;2023-05-07T07:13:00;4.18;;;2.60;;
9854;SDS011;4966;48.112;9.282;2023-05-07T07:15:25;4.13;;;2.58;;
9854;SDS011;4966;48.112;9.282;2023-05-07T07:17:51;6.18;;;2.95;;
9854;SDS011;4966;48.112;9.282;2023-05-07T07:20:16;4.30;;;2.30;;
9854;SDS011;4966;48.112;9.282;2023-05-07T07:22:41;4.22;;;2.50;;
9854;SDS011;4966;48.112;9.282;2023-05-07T07:25:07;4.97;;;2.20;;
9854;SDS011;4966;48.112;9.282;2023-05-07T07:27:33;3.90;;;2.33;;
9854;SDS011;4966;48.112;9.282;2023-05-07T07:29:58;4.03;;;2.20;;
9854;SDS011;4966;48.112;9.282;2023-05-07T07:32:24;2.97;;;1.98;;
9854;SDS011;4966;48.112;9.282;2023-05-07T07:34:49;4.93;;;2.10;;
9854;SDS011;4966;48.112;9.282;2023-05-07T07:37:14;4.10;;;2.30;;
9854;SDS011;4966;48.112;9.282;2023-05-07T07:39:40;3.25;;;1.90;;
9854;SDS011;4966;48.112;9.282;2023-05-07T07:42:06;3.97;;;1.95;;
9854;SDS011;4966;48.112;9.282;2023-05-07T07:44:31;4.97;;;1.95;;
9854;SDS011;4966;48.112;9.282;2023-05-07T07:46:57;2.58;;;1.60;;
9854;SDS011;4966;48.112;9.282;2023-05-07T07:49:22;3.33;;;2.10;;
9854;SDS011;4966;48.112;9.282;2023-05-07T07:51:47;5.90;;;1.90;;
9854;SDS011;4966;48.112;9.282;2023-05-07T07:54:13;2.75;;;1.80;;
9854;SDS011;4966;48.112;9.282;2023-05-07T07:56:38;3.50;;;2.08;;
9854;SDS011;4966;48.112;9.282;2023-05-07T07:59:03;3.15;;;2.10;;
9854;SDS011;4966;48.112;9.282;2023-05-07T08:01:29;5.88;;;2.05;;
9854;SDS011;4966;48.112;9.282;2023-05-07T08:03:55;3.22;;;2.10;;
9854;SDS011;4966;48.112;9.282;2023-05-07T08:06:22;5.22;;;2.00;;
9854;SDS011;4966;48.112;9.282;2023-05-07T08:08:48;6.40;;;2.60;;
9854;SDS011;4966;48.112;9.282;2023-05-07T08:11:14;6.30;;;2.40;;
9854;SDS011;4966;48.112;9.282;2023-05-07T08:13:39;6.00;;;2.35;;
9854;SDS011;4966;48.112;9.282;2023-05-07T08:16:05;4.63;;;2.13;;
9854;SDS011;4966;48.112;9.282;2023-05-07T08:18:30;3.92;;;1.92;;
9854;SDS011;4966;48.112;9.282;2023-05-07T08:20:55;3.22;;;1.83;;
9854;SDS011;4966;48.112;9.282;2023-05-07T08:23:21;4.15;;;2.20;;
9854;SDS011;4966;48.112;9.282;2023-05-07T08:25:48;3.90;;;2.20;;
9854;SDS011;4966;48.112;9.282;2023-05-07T08:28:14;4.38;;;1.92;;
9854;SDS011;4966;48.112;9.282;2023-05-07T08:30:39;2.42;;;1.83;;
9854;SDS011;4966;48.112;9.282;2023-05-07T08:33:05;2.65;;;1.70;;
9854;SDS011;4966;48.112;9.282;2023-05-07T08:35:30;3.90;;;1.67;;
9854;SDS011;4966;48.112;9.282;2023-05-07T08:37:55;2.30;;;1.52;;
9854;SDS011;4966;48.112;9.282;2023-05-07T08:40:24;3.97;;;1.45;;
9854;SDS011;4966;48.112;9.282;2023-05-07T08:42:52;2.70;;;1.40;;
9854;SDS011;4966;48.112;9.282;2023-05-07T08:45:19;2.30;;;1.50;;
9854;SDS011;4966;48.112;9.282;2023-05-07T08:47:52;4.15;;;1.30;;
9854;SDS011;4966;48.112;9.282;2023-05-07T08:50:23;3.30;;;1.50;;
9854;SDS011;4966;48.112;9.282;2023-05-07T08:52:48;3.08;;;1.52;;
9854;SDS011;4966;48.112;9.282;2023-05-07T08:55:14;2.38;;;1.20;;
9854;SDS011;4966;48.112;9.282;2023-05-07T08:57:40;2.38;;;1.15;;
9854;SDS011;4966;48.112;9.282;2023-05-07T09:00:05;3.97;;;1.70;;
9854;SDS011;4966;48.112;9.282;2023-05-07T09:02:32;2.47;;;1.20;;
9854;SDS011;4966;48.112;9.282;2023-05-07T09:04:59;2.55;;;1.40;;
9854;SDS011;4966;48.112;9.282;2023-05-07T09:07:25;3.15;;;1.20;;
9854;SDS011;4966;48.112;9.282;2023-05-07T09:09:51;2.92;;;1.45;;
9854;SDS011;4966;48.112;9.282;2023-05-07T09:12:18;2.97;;;1.60;;
9854;SDS011;4966;48.112;9.282;2023-05-07T09:14:44;3.10;;;1.70;;
9854;SDS011;4966;48.112;9.282;2023-05-07T09:17:10;4.50;;;1.90;;
9854;SDS011;4966;48.112;9.282;2023-05-07T09:19:36;8.52;;;1.70;;
9854;SDS011;4966;48.112;9.282;2023-05-07T09:22:02;3.22;;;1.38;;
9854;SDS011;4966;48.112;9.282;2023-05-07T09:24:29;4.15;;;2.00;;
9854;SDS011;4966;48.112;9.282;2023-05-07T09:26:59;3.05;;;1.40;;
9854;SDS011;4966;48.112;9.282;2023-05-07T09:29:26;3.75;;;1.80;;
9854;SDS011;4966;48.112;9.282;2023-05-07T09:31:53;2.92;;;1.58;;
9854;SDS011;4966;48.112;9.282;2023-05-07T09:34:19;4.47;;;1.50;;
9854;SDS011;4966;48.112;9.282;2023-05-07T09:36:44;3.00;;;2.17;;
9854;SDS011;4966;48.112;9.282;2023-05-07T09:39:10;3.38;;;1.77;;
9854;SDS011;4966;48.112;9.282;2023-05-07T09:41:42;2.65;;;1.70;;
9854;SDS011;4966;48.112;9.282;2023-05-07T09:44:09;2.67;;;1.60;;
9854;SDS011;4966;48.112;9.282;2023-05-07T09:46:36;3.67;;;1.80;;
9854;SDS011;4966;48.112;9.282;2023-05-07T09:49:03;3.13;;;1.77;;
9854;SDS011;4966;48.112;9.282;2023-05-07T09:54:17;4.60;;;2.28;;
9854;SDS011;4966;48.112;9.282;2023-05-07T09:56:49;3.58;;;1.88;;
9854;SDS011;4966;48.112;9.282;2023-05-07T09:59:17;2.88;;;1.70;;
9854;SDS011;4966;48.112;9.282;2023-05-07T10:01:43;2.90;;;1.73;;
9854;SDS011;4966;48.112;9.282;2023-05-07T10:04:10;2.75;;;1.70;;
9854;SDS011;4966;48.112;9.282;2023-05-07T10:06:36;2.13;;;1.45;;
9854;SDS011;4966;48.112;9.282;2023-05-07T10:09:05;2.20;;;1.35;;
9854;SDS011;4966;48.112;9.282;2023-05-07T10:11:34;4.00;;;1.90;;
9854;SDS011;4966;48.112;9.282;2023-05-07T10:14:01;4.05;;;1.90;;
9854;SDS011;4966;48.112;9.282;2023-05-07T10:16:27;6.32;;;1.90;;
9854;SDS011;4966;48.112;9.282;2023-05-07T10:18:56;6.00;;;1.52;;
9854;SDS011;4966;48.112;9.282;2023-05-07T10:21:23;1.80;;;1.17;;
9854;SDS011;4966;48.112;9.282;2023-05-07T10:23:58;2.88;;;1.40;;
9854;SDS011;4966;48.112;9.282;2023-05-07T10:26:31;3.28;;;1.60;;
9854;SDS011;4966;48.112;9.282;2023-05-07T10:29:05;3.15;;;2.17;;
9854;SDS011;4966;48.112;9.282;2023-05-07T10:34:28;2.65;;;1.92;;
9854;SDS011;4966;48.112;9.282;2023-05-07T10:36:59;3.58;;;1.65;;
9854;SDS011;4966;48.112;9.282;2023-05-07T10:39:25;4.93;;;1.92;;
9854;SDS011;4966;48.112;9.282;2023-05-07T10:41:50;2.88;;;2.03;;
9854;SDS011;4966;48.112;9.282;2023-05-07T10:44:26;2.90;;;1.80;;
9854;SDS011;4966;48.112;9.282;2023-05-07T10:47:03;4.25;;;1.98;;
9854;SDS011;4966;48.112;9.282;2023-05-07T10:55:19;3.40;;;1.73;;
9854;SDS011;4966;48.112;9.282;2023-05-07T10:57:40;2.97;;;2.00;;
9854;SDS011;4966;48.112;9.282;2023-05-07T11:05:27;2.30;;;1.63;;
9854;SDS011;4966;48.112;9.282;2023-05-07T11:07:54;4.25;;;1.80;;
9854;SDS011;4966;48.112;9.282;2023-05-07T11:10:21;3.63;;;1.63;;
9854;SDS011;4966;48.112;9.282;2023-05-07T11:12:50;3.47;;;1.75;;
9854;SDS011;4966;48.112;9.282;2023-05-07T11:15:49;3.35;;;1.40;;
9854;SDS011;4966;48.112;9.282;2023-05-07T11:18:10;2.30;;;1.20;;
9854;SDS011;4966;48.112;9.282;2023-05-07T11:26:03;2.92;;;1.50;;
9854;SDS011;4966;48.112;9.282;2023-05-07T11:28:42;2.13;;;1.40;;
9854;SDS011;4966;48.112;9.282;2023-05-07T11:31:08;4.25;;;1.27;;
9854;SDS011;4966;48.112;9.282;2023-05-07T11:33:34;3.92;;;1.30;;
9854;SDS011;4966;48.112;9.282;2023-05-07T11:36:02;1.90;;;1.08;;
9854;SDS011;4966;48.112;9.282;2023-05-07T11:38:28;1.40;;;1.10;;
9854;SDS011;4966;48.112;9.282;2023-05-07T11:40:58;2.70;;;1.05;;
9854;SDS011;4966;48.112;9.282;2023-05-07T11:43:29;3.38;;;1.02;;
9854;SDS011;4966;48.112;9.282;2023-05-07T11:46:04;2.33;;;1.25;;
9854;SDS011;4966;48.112;9.282;2023-05-07T11:48:30;1.98;;;1.08;;
9854;SDS011;4966;48.112;9.282;2023-05-07T11:51:01;1.80;;;1.10;;
9854;SDS011;4966;48.112;9.282;2023-05-07T11:53:35;1.25;;;1.00;;
9854;SDS011;4966;48.112;9.282;2023-05-07T11:56:07;2.83;;;1.20;;
9854;SDS011;4966;48.112;9.282;2023-05-07T11:58:37;2.55;;;1.15;;
9854;SDS011;4966;48.112;9.282;2023-05-07T12:01:02;4.32;;;1.08;;
9854;SDS011;4966;48.112;9.282;2023-05-07T12:03:28;2.38;;;1.27;;
9854;SDS011;4966;48.112;9.282;2023-05-07T12:05:54;1.98;;;1.30;;
9854;SDS011;4966;48.112;9.282;2023-05-07T12:08:19;1.17;;;1.00;;
9854;SDS011;4966;48.112;9.282;2023-05-07T12:10:48;4.00;;;1.60;;
9854;SDS011;4966;48.112;9.282;2023-05-07T12:13:21;2.85;;;1.48;;
9854;SDS011;4966;48.112;9.282;2023-05-07T12:16:06;4.18;;;1.48;;
9854;SDS011;4966;48.112;9.282;2023-05-07T12:18:32;2.80;;;1.17;;
9854;SDS011;4966;48.112;9.282;2023-05-07T12:20:59;5.90;;;1.25;;
9854;SDS011;4966;48.112;9.282;2023-05-07T12:23:25;4.50;;;1.17;;
9854;SDS011;4966;48.112;9.282;2023-05-07T12:25:50;4.10;;;1.42;;
9854;SDS011;4966;48.112;9.282;2023-05-07T12:28:16;3.67;;;1.42;;
9854;SDS011;4966;48.112;9.282;2023-05-07T12:30:43;1.98;;;1.15;;
9854;SDS011;4966;48.112;9.282;2023-05-07T12:33:09;1.52;;;1.08;;
9854;SDS011;4966;48.112;9.282;2023-05-07T12:35:42;3.65;;;1.40;;
9854;SDS011;4966;48.112;9.282;2023-05-07T12:38:12;2.95;;;1.20;;
9854;SDS011;4966;48.112;9.282;2023-05-07T12:40:42;3.22;;;1.40;;
9854;SDS011;4966;48.112;9.282;2023-05-07T12:43:24;2.35;;;1.20;;
9854;SDS011;4966;48.112;9.282;2023-05-07T12:45:51;3.15;;;1.58;;
9854;SDS011;4966;48.112;9.282;2023-05-07T12:48:18;4.63;;;1.20;;
9854;SDS011;4966;48.112;9.282;2023-05-07T12:50:44;3.72;;;1.23;;
9854;SDS011;4966;48.112;9.282;2023-05-07T12:53:11;2.67;;;1.10;;
9854;SDS011;4966;48.112;9.282;2023-05-07T12:55:47;4.40;;;1.23;;
9854;SDS011;4966;48.112;9.282;2023-05-07T12:58:14;4.25;;;1.50;;
9854;SDS011;4966;48.112;9.282;2023-05-07T13:03:29;2.47;;;1.20;;
9854;SDS011;4966;48.112;9.282;2023-05-07T13:06:06;3.08;;;1.40;;
9854;SDS011;4966;48.112;9.282;2023-05-07T13:08:36;4.72;;;1.40;;
9854;SDS011;4966;48.112;9.282;2023-05-07T13:11:07;2.78;;;1.35;;
9854;SDS011;4966;48.112;9.282;2023-05-07T13:13:34;2.88;;;1.58;;
9854;SDS011;4966;48.112;9.282;2023-05-07T13:16:01;3.20;;;1.83;;
9854;SDS011;4966;48.112;9.282;2023-05-07T13:18:31;2.83;;;1.70;;
9854;SDS011;4966;48.112;9.282;2023-05-07T13:20:57;7.72;;;1.60;;
9854;SDS011;4966;48.112;9.282;2023-05-07T13:23:23;2.00;;;1.73;;
9854;SDS011;4966;48.112;9.282;2023-05-07T13:25:49;3.17;;;1.40;;
9854;SDS011;4966;48.112;9.282;2023-05-07T13:28:15;2.42;;;1.42;;
9854;SDS011;4966;48.112;9.282;2023-05-07T13:30:40;2.13;;;1.58;;
9854;SDS011;4966;48.112;9.282;2023-05-07T13:33:06;2.67;;;1.67;;
9854;SDS011;4966;48.112;9.282;2023-05-07T13:35:32;4.78;;;1.70;;
9854;SDS011;4966;48.112;9.282;2023-05-07T13:37:57;5.30;;;1.17;;
9854;SDS011;4966;48.112;9.282;2023-05-07T13:40:23;5.15;;;1.10;;
9854;SDS011;4966;48.112;9.282;2023-05-07T13:42:49;2.50;;;1.02;;
9854;SDS011;4966;48.112;9.282;2023-05-07T13:45:15;3.45;;;1.77;;
9854;SDS011;4966;48.112;9.282;2023-05-07T13:47:41;4.03;;;1.33;;
9854;SDS011;4966;48.112;9.282;2023-05-07T13:50:07;3.97;;;1.40;;
9854;SDS011;4966;48.112;9.282;2023-05-07T13:52:34;4.10;;;1.35;;
9854;SDS011;4966;48.112;9.282;2023-05-07T13:54:59;4.78;;;1.63;;
9854;SDS011;4966;48.112;9.282;2023-05-07T13:57:24;4.93;;;1.48;;
9854;SDS011;4966;48.112;9.282;2023-05-07T13:59:50;4.18;;;1.52;;
9854;SDS011;4966;48.112;9.282;2023-05-07T14:02:15;2.58;;;1.35;;
9854;SDS011;4966;48.112;9.282;2023-05-07T14:04:40;3.60;;;1.85;;
9854;SDS011;4966;48.112;9.282;2023-05-07T14:07:06;8.10;;;1.73;;
9854;SDS011;4966;48.112;9.282;2023-05-07T14:09:31;3.08;;;1.27;;
9854;SDS011;4966;48.112;9.282;2023-05-07T14:11:58;5.38;;;1.40;;
9854;SDS011;4966;48.112;9.282;2023-05-07T14:14:23;5.53;;;2.00;;
9854;SDS011;4966;48.112;9.282;2023-05-07T14:16:49;9.10;;;1.60;;
9854;SDS011;4966;48.112;9.282;2023-05-07T14:19:14;6.57;;;1.95;;
9854;SDS011;4966;48.112;9.282;2023-05-07T14:21:40;7.35;;;1.60;;
9854;SDS011;4966;48.112;9.282;2023-05-07T14:24:06;3.60;;;1.38;;
9854;SDS011;4966;48.112;9.282;2023-05-07T14:26:33;4.50;;;1.55;;
9854;SDS011;4966;48.112;9.282;2023-05-07T14:28:59;3.20;;;1.40;;
9854;SDS011;4966;48.112;9.282;2023-05-07T14:31:24;7.00;;;2.15;;
9854;SDS011;4966;48.112;9.282;2023-05-07T14:33:50;3.97;;;1.40;;
9854;SDS011;4966;48.112;9.282;2023-05-07T14:36:17;5.90;;;1.75;;
9854;SDS011;4966;48.112;9.282;2023-05-07T14:38:44;2.38;;;1.35;;
9854;SDS011;4966;48.112;9.282;2023-05-07T14:41:10;2.58;;;1.10;;
9854;SDS011;4966;48.112;9.282;2023-05-07T14:43:36;2.53;;;0.95;;
9854;SDS011;4966;48.112;9.282;2023-05-07T14:46:01;2.85;;;1.30;;
9854;SDS011;4966;48.112;9.282;2023-05-07T14:48:27;1.80;;;0.77;;
9854;SDS011;4966;48.112;9.282;2023-05-07T14:50:52;4.07;;;1.15;;
9854;SDS011;4966;48.112;9.282;2023-05-07T14:53:17;3.63;;;1.17;;
9854;SDS011;4966;48.112;9.282;2023-05-07T14:55:42;2.75;;;1.00;;
9854;SDS011;4966;48.112;9.282;2023-05-07T14:58:08;1.92;;;0.82;;
9854;SDS011;4966;48.112;9.282;2023-05-07T15:00:35;2.88;;;1.05;;
9854;SDS011;4966;48.112;9.282;2023-05-07T15:03:04;2.72;;;1.20;;
9854;SDS011;4966;48.112;9.282;2023-05-07T15:05:32;3.88;;;1.05;;
9854;SDS011;4966;48.112;9.282;2023-05-07T15:07:57;2.13;;;1.00;;
9854;SDS011;4966;48.112;9.282;2023-05-07T15:10:23;4.03;;;1.00;;
9854;SDS011;4966;48.112;9.282;2023-05-07T15:12:48;4.53;;;1.10;;
9854;SDS011;4966;48.112;9.282;2023-05-07T15:15:13;1.67;;;1.00;;
9854;SDS011;4966;48.112;9.282;2023-05-07T15:17:39;3.03;;;1.10;;
9854;SDS011;4966;48.112;9.282;2023-05-07T15:20:04;1.65;;;0.80;;
9854;SDS011;4966;48.112;9.282;2023-05-07T15:22:30;2.65;;;0.90;;
9854;SDS011;4966;48.112;9.282;2023-05-07T15:24:56;2.55;;;0.82;;
9854;SDS011;4966;48.112;9.282;2023-05-07T15:27:22;1.55;;;1.00;;
9854;SDS011;4966;48.112;9.282;2023-05-07T15:29:47;2.20;;;0.75;;
9854;SDS011;4966;48.112;9.282;2023-05-07T15:32:13;2.45;;;0.82;;
9854;SDS011;4966;48.112;9.282;2023-05-07T15:34:38;2.08;;;0.80;;
9854;SDS011;4966;48.112;9.282;2023-05-07T15:37:04;4.57;;;0.98;;